sensor_id;sensor_type;location;lat;lon;timestamp;temperature;humidity
43541;DHT22;29549;40.386;-3.710;2023-11-19T00:00:01;14.70;67.20
43541;DHT22;29549;40.386;-3.710;2023-11-19T00:00:15;14.70;67.20
43541;DHT22;29549;40.386;-3.710;2023-11-19T00:00:26;14.70;67.20
43541;DHT22;29549;40.386;-3.710;2023-11-19T00:00:37;14.70;67.20
43541;DHT22;29549;40.386;-3.710;2023-11-19T00:00:48;14.70;67.20
43541;DHT22;29549;40.386;-3.710;2023-11-19T00:00:58;14.70;67.20
43541;DHT22;29549;40.386;-3.710;2023-11-19T00:01:09;14.70;67.20
43541;DHT22;29549;40.386;-3.710;2023-11-19T00:01:20;14.70;67.20
43541;DHT22;29549;40.386;-3.710;2023-11-19T00:01:31;14.70;67.20
43541;DHT22;29549;40.386;-3.710;2023-11-19T00:01:43;14.70;67.20
43541;DHT22;29549;40.386;-3.710;2023-11-19T00:01:53;14.70;67.20
43541;DHT22;29549;40.386;-3.710;2023-11-19T00:02:04;14.70;67.20
43541;DHT22;29549;40.386;-3.710;2023-11-19T00:02:15;14.70;67.20
43541;DHT22;29549;40.386;-3.710;2023-11-19T00:02:26;14.70;67.20
43541;DHT22;29549;40.386;-3.710;2023-11-19T00:02:38;14.60;67.30
43541;DHT22;29549;40.386;-3.710;2023-11-19T00:02:49;14.70;67.20
43541;DHT22;29549;40.386;-3.710;2023-11-19T00:03:00;14.70;67.20
43541;DHT22;29549;40.386;-3.710;2023-11-19T00:03:11;14.60;67.20
43541;DHT22;29549;40.386;-3.710;2023-11-19T00:03:23;14.60;67.20
43541;DHT22;29549;40.386;-3.710;2023-11-19T00:03:34;14.70;67.10
43541;DHT22;29549;40.386;-3.710;2023-11-19T00:03:45;14.60;67.10
43541;DHT22;29549;40.386;-3.710;2023-11-19T00:03:56;14.70;67.10
43541;DHT22;29549;40.386;-3.710;2023-11-19T00:04:07;14.60;67.10
43541;DHT22;29549;40.386;-3.710;2023-11-19T00:04:18;14.60;67.10
43541;DHT22;29549;40.386;-3.710;2023-11-19T00:04:29;14.60;67.10
43541;DHT22;29549;40.386;-3.710;2023-11-19T00:04:40;14.70;67.10
43541;DHT22;29549;40.386;-3.710;2023-11-19T00:04:51;14.70;67.00
43541;DHT22;29549;40.386;-3.710;2023-11-19T00:05:02;14.70;67.00
43541;DHT22;29549;40.386;-3.710;2023-11-19T00:05:13;14.70;66.90
43541;DHT22;29549;40.386;-3.710;2023-11-19T00:05:24;14.60;66.80
43541;DHT22;29549;40.386;-3.710;2023-11-19T00:05:34;14.60;66.80
43541;DHT22;29549;40.386;-3.710;2023-11-19T00:05:45;14.70;66.90
43541;DHT22;29549;40.386;-3.710;2023-11-19T00:05:56;14.70;66.90
43541;DHT22;29549;40.386;-3.710;2023-11-19T00:06:07;14.60;66.80
43541;DHT22;29549;40.386;-3.710;2023-11-19T00:06:20;14.70;66.80
43541;DHT22;29549;40.386;-3.710;2023-11-19T00:06:31;14.60;66.80
43541;DHT22;29549;40.386;-3.710;2023-11-19T00:06:41;14.70;66.80
43541;DHT22;29549;40.386;-3.710;2023-11-19T00:06:52;14.60;66.90
43541;DHT22;29549;40.386;-3.710;2023-11-19T00:07:03;14.60;66.90
43541;DHT22;29549;40.386;-3.710;2023-11-19T00:07:16;14.70;66.80
43541;DHT22;29549;40.386;-3.710;2023-11-19T00:07:26;14.60;66.90
43541;DHT22;29549;40.386;-3.710;2023-11-19T00:07:37;14.60;66.90
43541;DHT22;29549;40.386;-3.710;2023-11-19T00:07:51;14.60;66.90
43541;DHT22;29549;40.386;-3.710;2023-11-19T00:08:02;14.60;66.90
43541;DHT22;29549;40.386;-3.710;2023-11-19T00:08:13;14.60;67.00
43541;DHT22;29549;40.386;-3.710;2023-11-19T00:08:23;14.60;67.00
43541;DHT22;29549;40.386;-3.710;2023-11-19T00:08:35;14.60;66.90
43541;DHT22;29549;40.386;-3.710;2023-11-19T00:08:46;14.60;66.90
43541;DHT22;29549;40.386;-3.710;2023-11-19T00:08:57;14.60;66.90
43541;DHT22;29549;40.386;-3.710;2023-11-19T00:09:07;14.60;66.90
43541;DHT22;29549;40.386;-3.710;2023-11-19T00:09:18;14.60;66.90
43541;DHT22;29549;40.386;-3.710;2023-11-19T00:09:29;14.60;66.90
43541;DHT22;29549;40.386;-3.710;2023-11-19T00:09:40;14.60;66.90
43541;DHT22;29549;40.386;-3.710;2023-11-19T00:09:51;14.60;66.90
43541;DHT22;29549;40.386;-3.710;2023-11-19T00:10:02;14.60;66.90
43541;DHT22;29549;40.386;-3.710;2023-11-19T00:10:15;14.60;66.80
43541;DHT22;29549;40.386;-3.710;2023-11-19T00:10:29;14.60;66.90
43541;DHT22;29549;40.386;-3.710;2023-11-19T00:10:39;14.60;66.90
43541;DHT22;29549;40.386;-3.710;2023-11-19T00:10:50;14.60;66.90
43541;DHT22;29549;40.386;-3.710;2023-11-19T00:11:01;14.60;66.90
43541;DHT22;29549;40.386;-3.710;2023-11-19T00:11:13;14.60;66.90
43541;DHT22;29549;40.386;-3.710;2023-11-19T00:11:26;14.60;66.90
43541;DHT22;29549;40.386;-3.710;2023-11-19T00:11:36;14.60;66.80
43541;DHT22;29549;40.386;-3.710;2023-11-19T00:11:48;14.60;66.80
43541;DHT22;29549;40.386;-3.710;2023-11-19T00:11:59;14.60;66.80
43541;DHT22;29549;40.386;-3.710;2023-11-19T00:12:10;14.60;66.70
43541;DHT22;29549;40.386;-3.710;2023-11-19T00:12:21;14.60;66.80
43541;DHT22;29549;40.386;-3.710;2023-11-19T00:12:33;14.60;66.80
43541;DHT22;29549;40.386;-3.710;2023-11-19T00:12:45;14.60;66.80
43541;DHT22;29549;40.386;-3.710;2023-11-19T00:12:56;14.60;66.70
43541;DHT22;29549;40.386;-3.710;2023-11-19T00:13:07;14.60;66.70
43541;DHT22;29549;40.386;-3.710;2023-11-19T00:13:18;14.60;66.70
43541;DHT22;29549;40.386;-3.710;2023-11-19T00:13:29;14.60;66.70
43541;DHT22;29549;40.386;-3.710;2023-11-19T00:13:39;14.60;66.70
43541;DHT22;29549;40.386;-3.710;2023-11-19T00:13:51;14.60;66.70
43541;DHT22;29549;40.386;-3.710;2023-11-19T00:14:02;14.60;66.80
43541;DHT22;29549;40.386;-3.710;2023-11-19T00:14:12;14.60;66.80
43541;DHT22;29549;40.386;-3.710;2023-11-19T00:14:24;14.50;66.90
43541;DHT22;29549;40.386;-3.710;2023-11-19T00:14:36;14.50;66.90
43541;DHT22;29549;40.386;-3.710;2023-11-19T00:14:46;14.50;66.90
43541;DHT22;29549;40.386;-3.710;2023-11-19T00:14:57;14.50;66.90
43541;DHT22;29549;40.386;-3.710;2023-11-19T00:15:08;14.60;67.00
43541;DHT22;29549;40.386;-3.710;2023-11-19T00:15:21;14.50;66.90
43541;DHT22;29549;40.386;-3.710;2023-11-19T00:15:34;14.50;66.80
43541;DHT22;29549;40.386;-3.710;2023-11-19T00:15:45;14.50;66.80
43541;DHT22;29549;40.386;-3.710;2023-11-19T00:15:56;14.50;66.80
43541;DHT22;29549;40.386;-3.710;2023-11-19T00:16:08;14.50;66.80
43541;DHT22;29549;40.386;-3.710;2023-11-19T00:16:20;14.50;66.90
43541;DHT22;29549;40.386;-3.710;2023-11-19T00:16:30;14.50;66.90
43541;DHT22;29549;40.386;-3.710;2023-11-19T00:16:42;14.50;66.90
43541;DHT22;29549;40.386;-3.710;2023-11-19T00:16:53;14.50;66.90
43541;DHT22;29549;40.386;-3.710;2023-11-19T00:17:04;14.50;66.90
43541;DHT22;29549;40.386;-3.710;2023-11-19T00:17:14;14.50;66.90
43541;DHT22;29549;40.386;-3.710;2023-11-19T00:17:25;14.50;66.90
43541;DHT22;29549;40.386;-3.710;2023-11-19T00:17:41;14.50;66.90
43541;DHT22;29549;40.386;-3.710;2023-11-19T00:17:55;14.50;66.80
43541;DHT22;29549;40.386;-3.710;2023-11-19T00:18:05;14.50;66.90
43541;DHT22;29549;40.386;-3.710;2023-11-19T00:18:16;14.50;66.90
43541;DHT22;29549;40.386;-3.710;2023-11-19T00:18:27;14.50;66.90
43541;DHT22;29549;40.386;-3.710;2023-11-19T00:18:38;14.50;66.90
43541;DHT22;29549;40.386;-3.710;2023-11-19T00:18:48;14.50;67.00
43541;DHT22;29549;40.386;-3.710;2023-11-19T00:19:00;14.50;66.90
43541;DHT22;29549;40.386;-3.710;2023-11-19T00:19:11;14.50;66.90
43541;DHT22;29549;40.386;-3.710;2023-11-19T00:19:22;14.50;66.90
43541;DHT22;29549;40.386;-3.710;2023-11-19T00:19:33;14.50;66.90
43541;DHT22;29549;40.386;-3.710;2023-11-19T00:19:43;14.50;67.00
43541;DHT22;29549;40.386;-3.710;2023-11-19T00:19:54;14.50;67.00
43541;DHT22;29549;40.386;-3.710;2023-11-19T00:20:06;14.40;67.00
43541;DHT22;29549;40.386;-3.710;2023-11-19T00:20:18;14.40;67.10
43541;DHT22;29549;40.386;-3.710;2023-11-19T00:20:29;14.50;67.10
43541;DHT22;29549;40.386;-3.710;2023-11-19T00:20:40;14.40;67.20
43541;DHT22;29549;40.386;-3.710;2023-11-19T00:20:50;14.40;67.20
43541;DHT22;29549;40.386;-3.710;2023-11-19T00:21:01;14.40;67.20
43541;DHT22;29549;40.386;-3.710;2023-11-19T00:21:12;14.40;67.10
43541;DHT22;29549;40.386;-3.710;2023-11-19T00:21:23;14.40;67.10
43541;DHT22;29549;40.386;-3.710;2023-11-19T00:21:34;14.40;67.20
43541;DHT22;29549;40.386;-3.710;2023-11-19T00:21:44;14.40;67.10
43541;DHT22;29549;40.386;-3.710;2023-11-19T00:21:56;14.40;67.10
43541;DHT22;29549;40.386;-3.710;2023-11-19T00:22:07;14.40;67.00
43541;DHT22;29549;40.386;-3.710;2023-11-19T00:22:17;14.40;67.00
43541;DHT22;29549;40.386;-3.710;2023-11-19T00:22:28;14.40;67.00
43541;DHT22;29549;40.386;-3.710;2023-11-19T00:22:39;14.50;67.10
43541;DHT22;29549;40.386;-3.710;2023-11-19T00:22:50;14.40;67.00
43541;DHT22;29549;40.386;-3.710;2023-11-19T00:23:03;14.50;67.00
43541;DHT22;29549;40.386;-3.710;2023-11-19T00:23:14;14.40;67.00
43541;DHT22;29549;40.386;-3.710;2023-11-19T00:23:25;14.40;67.10
43541;DHT22;29549;40.386;-3.710;2023-11-19T00:23:36;14.40;67.10
43541;DHT22;29549;40.386;-3.710;2023-11-19T00:23:47;14.40;67.20
43541;DHT22;29549;40.386;-3.710;2023-11-19T00:23:57;14.40;67.20
43541;DHT22;29549;40.386;-3.710;2023-11-19T00:24:09;14.40;67.20
43541;DHT22;29549;40.386;-3.710;2023-11-19T00:24:19;14.40;67.20
43541;DHT22;29549;40.386;-3.710;2023-11-19T00:24:31;14.40;67.30
43541;DHT22;29549;40.386;-3.710;2023-11-19T00:24:42;14.40;67.30
43541;DHT22;29549;40.386;-3.710;2023-11-19T00:24:52;14.40;67.20
43541;DHT22;29549;40.386;-3.710;2023-11-19T00:25:04;14.40;67.20
43541;DHT22;29549;40.386;-3.710;2023-11-19T00:25:16;14.40;67.20
43541;DHT22;29549;40.386;-3.710;2023-11-19T00:25:26;14.40;67.20
43541;DHT22;29549;40.386;-3.710;2023-11-19T00:25:37;14.40;67.20
43541;DHT22;29549;40.386;-3.710;2023-11-19T00:25:49;14.40;67.20
43541;DHT22;29549;40.386;-3.710;2023-11-19T00:26:00;14.40;67.20
43541;DHT22;29549;40.386;-3.710;2023-11-19T00:26:10;14.40;67.10
43541;DHT22;29549;40.386;-3.710;2023-11-19T00:26:21;14.40;67.10
43541;DHT22;29549;40.386;-3.710;2023-11-19T00:26:32;14.40;67.10
43541;DHT22;29549;40.386;-3.710;2023-11-19T00:26:43;14.40;67.10
43541;DHT22;29549;40.386;-3.710;2023-11-19T00:26:53;14.40;67.10
43541;DHT22;29549;40.386;-3.710;2023-11-19T00:27:04;14.40;67.10
43541;DHT22;29549;40.386;-3.710;2023-11-19T00:27:15;14.40;67.10
43541;DHT22;29549;40.386;-3.710;2023-11-19T00:27:26;14.40;67.10
43541;DHT22;29549;40.386;-3.710;2023-11-19T00:27:37;14.40;67.10
43541;DHT22;29549;40.386;-3.710;2023-11-19T00:27:51;14.40;67.10
43541;DHT22;29549;40.386;-3.710;2023-11-19T00:28:03;14.40;67.10
43541;DHT22;29549;40.386;-3.710;2023-11-19T00:28:14;14.40;67.20
43541;DHT22;29549;40.386;-3.710;2023-11-19T00:28:25;14.40;67.20
43541;DHT22;29549;40.386;-3.710;2023-11-19T00:28:35;14.40;67.20
43541;DHT22;29549;40.386;-3.710;2023-11-19T00:28:49;14.40;67.20
43541;DHT22;29549;40.386;-3.710;2023-11-19T00:28:59;14.40;67.20
43541;DHT22;29549;40.386;-3.710;2023-11-19T00:29:10;14.40;67.20
43541;DHT22;29549;40.386;-3.710;2023-11-19T00:29:21;14.40;67.20
43541;DHT22;29549;40.386;-3.710;2023-11-19T00:29:32;14.40;67.20
43541;DHT22;29549;40.386;-3.710;2023-11-19T00:29:42;14.40;67.10
43541;DHT22;29549;40.386;-3.710;2023-11-19T00:29:56;14.40;67.10
43541;DHT22;29549;40.386;-3.710;2023-11-19T00:30:07;14.40;67.10
43541;DHT22;29549;40.386;-3.710;2023-11-19T00:30:18;14.40;67.10
43541;DHT22;29549;40.386;-3.710;2023-11-19T00:30:29;14.40;67.10
43541;DHT22;29549;40.386;-3.710;2023-11-19T00:30:41;14.40;67.10
43541;DHT22;29549;40.386;-3.710;2023-11-19T00:30:52;14.40;67.10
43541;DHT22;29549;40.386;-3.710;2023-11-19T00:31:03;14.40;67.00
43541;DHT22;29549;40.386;-3.710;2023-11-19T00:31:14;14.40;67.10
43541;DHT22;29549;40.386;-3.710;2023-11-19T00:31:25;14.40;67.10
43541;DHT22;29549;40.386;-3.710;2023-11-19T00:31:38;14.40;67.10
43541;DHT22;29549;40.386;-3.710;2023-11-19T00:31:49;14.40;67.20
43541;DHT22;29549;40.386;-3.710;2023-11-19T00:31:59;14.30;67.20
43541;DHT22;29549;40.386;-3.710;2023-11-19T00:32:10;14.40;67.20
43541;DHT22;29549;40.386;-3.710;2023-11-19T00:32:22;14.30;67.10
43541;DHT22;29549;40.386;-3.710;2023-11-19T00:32:33;14.30;67.10
43541;DHT22;29549;40.386;-3.710;2023-11-19T00:32:44;14.40;67.10
43541;DHT22;29549;40.386;-3.710;2023-11-19T00:32:55;14.30;67.10
43541;DHT22;29549;40.386;-3.710;2023-11-19T00:33:06;14.40;67.10
43541;DHT22;29549;40.386;-3.710;2023-11-19T00:33:17;14.30;67.10
43541;DHT22;29549;40.386;-3.710;2023-11-19T00:33:28;14.30;67.10
43541;DHT22;29549;40.386;-3.710;2023-11-19T00:33:39;14.30;67.10
43541;DHT22;29549;40.386;-3.710;2023-11-19T00:33:50;14.30;67.10
43541;DHT22;29549;40.386;-3.710;2023-11-19T00:34:01;14.30;67.10
43541;DHT22;29549;40.386;-3.710;2023-11-19T00:34:12;14.30;67.10
43541;DHT22;29549;40.386;-3.710;2023-11-19T00:34:23;14.30;67.20
43541;DHT22;29549;40.386;-3.710;2023-11-19T00:34:34;14.40;67.20
43541;DHT22;29549;40.386;-3.710;2023-11-19T00:34:45;14.40;67.20
43541;DHT22;29549;40.386;-3.710;2023-11-19T00:34:57;14.30;67.20
43541;DHT22;29549;40.386;-3.710;2023-11-19T00:35:08;14.30;67.30
43541;DHT22;29549;40.386;-3.710;2023-11-19T00:35:20;14.40;67.20
43541;DHT22;29549;40.386;-3.710;2023-11-19T00:35:31;14.30;67.20
43541;DHT22;29549;40.386;-3.710;2023-11-19T00:35:42;14.30;67.10
43541;DHT22;29549;40.386;-3.710;2023-11-19T00:35:54;14.30;67.00
43541;DHT22;29549;40.386;-3.710;2023-11-19T00:36:05;14.30;67.00
43541;DHT22;29549;40.386;-3.710;2023-11-19T00:36:16;14.30;67.00
43541;DHT22;29549;40.386;-3.710;2023-11-19T00:36:26;14.30;67.00
43541;DHT22;29549;40.386;-3.710;2023-11-19T00:36:37;14.30;67.00
43541;DHT22;29549;40.386;-3.710;2023-11-19T00:36:48;14.30;67.10
43541;DHT22;29549;40.386;-3.710;2023-11-19T00:36:59;14.40;67.10
43541;DHT22;29549;40.386;-3.710;2023-11-19T00:37:10;14.30;67.00
43541;DHT22;29549;40.386;-3.710;2023-11-19T00:37:20;14.30;67.10
43541;DHT22;29549;40.386;-3.710;2023-11-19T00:37:32;14.30;67.10
43541;DHT22;29549;40.386;-3.710;2023-11-19T00:37:43;14.30;67.20
43541;DHT22;29549;40.386;-3.710;2023-11-19T00:37:55;14.30;67.20
43541;DHT22;29549;40.386;-3.710;2023-11-19T00:38:06;14.30;67.30
43541;DHT22;29549;40.386;-3.710;2023-11-19T00:38:17;14.30;67.30
43541;DHT22;29549;40.386;-3.710;2023-11-19T00:38:28;14.30;67.40
43541;DHT22;29549;40.386;-3.710;2023-11-19T00:38:38;14.30;67.30
43541;DHT22;29549;40.386;-3.710;2023-11-19T00:38:49;14.30;67.30
43541;DHT22;29549;40.386;-3.710;2023-11-19T00:39:00;14.30;67.40
43541;DHT22;29549;40.386;-3.710;2023-11-19T00:39:11;14.30;67.40
43541;DHT22;29549;40.386;-3.710;2023-11-19T00:39:22;14.30;67.30
43541;DHT22;29549;40.386;-3.710;2023-11-19T00:39:33;14.30;67.30
43541;DHT22;29549;40.386;-3.710;2023-11-19T00:39:43;14.30;67.30
43541;DHT22;29549;40.386;-3.710;2023-11-19T00:39:54;14.30;67.30
43541;DHT22;29549;40.386;-3.710;2023-11-19T00:40:07;14.30;67.20
43541;DHT22;29549;40.386;-3.710;2023-11-19T00:40:18;14.30;67.30
43541;DHT22;29549;40.386;-3.710;2023-11-19T00:40:32;14.30;67.20
43541;DHT22;29549;40.386;-3.710;2023-11-19T00:40:42;14.30;67.20
43541;DHT22;29549;40.386;-3.710;2023-11-19T00:40:54;14.30;67.20
43541;DHT22;29549;40.386;-3.710;2023-11-19T00:41:05;14.30;67.20
43541;DHT22;29549;40.386;-3.710;2023-11-19T00:41:16;14.30;67.10
43541;DHT22;29549;40.386;-3.710;2023-11-19T00:41:27;14.30;67.20
43541;DHT22;29549;40.386;-3.710;2023-11-19T00:41:38;14.30;67.10
43541;DHT22;29549;40.386;-3.710;2023-11-19T00:41:48;14.30;67.10
43541;DHT22;29549;40.386;-3.710;2023-11-19T00:41:59;14.30;67.20
43541;DHT22;29549;40.386;-3.710;2023-11-19T00:42:10;14.30;67.10
43541;DHT22;29549;40.386;-3.710;2023-11-19T00:42:21;14.30;67.10
43541;DHT22;29549;40.386;-3.710;2023-11-19T00:42:31;14.30;67.20
43541;DHT22;29549;40.386;-3.710;2023-11-19T00:42:42;14.30;67.20
43541;DHT22;29549;40.386;-3.710;2023-11-19T00:42:53;14.30;67.20
43541;DHT22;29549;40.386;-3.710;2023-11-19T00:43:04;14.30;67.20
43541;DHT22;29549;40.386;-3.710;2023-11-19T00:43:15;14.30;67.20
43541;DHT22;29549;40.386;-3.710;2023-11-19T00:43:26;14.30;67.20
43541;DHT22;29549;40.386;-3.710;2023-11-19T00:43:37;14.30;67.20
43541;DHT22;29549;40.386;-3.710;2023-11-19T00:43:48;14.30;67.30
43541;DHT22;29549;40.386;-3.710;2023-11-19T00:43:59;14.30;67.30
43541;DHT22;29549;40.386;-3.710;2023-11-19T00:44:10;14.30;67.30
43541;DHT22;29549;40.386;-3.710;2023-11-19T00:44:21;14.30;67.20
43541;DHT22;29549;40.386;-3.710;2023-11-19T00:44:32;14.30;67.20
43541;DHT22;29549;40.386;-3.710;2023-11-19T00:44:42;14.30;67.30
43541;DHT22;29549;40.386;-3.710;2023-11-19T00:44:53;14.30;67.30
43541;DHT22;29549;40.386;-3.710;2023-11-19T00:45:05;14.30;67.20
43541;DHT22;29549;40.386;-3.710;2023-11-19T00:45:20;14.30;67.20
43541;DHT22;29549;40.386;-3.710;2023-11-19T00:45:30;14.30;67.20
43541;DHT22;29549;40.386;-3.710;2023-11-19T00:45:41;14.30;67.20
43541;DHT22;29549;40.386;-3.710;2023-11-19T00:45:52;14.30;67.20
43541;DHT22;29549;40.386;-3.710;2023-11-19T00:46:03;14.30;67.20
43541;DHT22;29549;40.386;-3.710;2023-11-19T00:46:13;14.30;67.30
43541;DHT22;29549;40.386;-3.710;2023-11-19T00:46:24;14.30;67.20
43541;DHT22;29549;40.386;-3.710;2023-11-19T00:46:35;14.30;67.20
43541;DHT22;29549;40.386;-3.710;2023-11-19T00:46:45;14.30;67.20
43541;DHT22;29549;40.386;-3.710;2023-11-19T00:46:56;14.30;67.20
43541;DHT22;29549;40.386;-3.710;2023-11-19T00:47:07;14.20;67.30
43541;DHT22;29549;40.386;-3.710;2023-11-19T00:47:18;14.30;67.30
43541;DHT22;29549;40.386;-3.710;2023-11-19T00:47:32;14.30;67.20
43541;DHT22;29549;40.386;-3.710;2023-11-19T00:47:42;14.30;67.20
43541;DHT22;29549;40.386;-3.710;2023-11-19T00:47:53;14.30;67.20
43541;DHT22;29549;40.386;-3.710;2023-11-19T00:48:04;14.30;67.20
43541;DHT22;29549;40.386;-3.710;2023-11-19T00:48:15;14.30;67.10
43541;DHT22;29549;40.386;-3.710;2023-11-19T00:48:26;14.20;67.20
43541;DHT22;29549;40.386;-3.710;2023-11-19T00:48:37;14.30;67.10
43541;DHT22;29549;40.386;-3.710;2023-11-19T00:48:48;14.30;67.20
43541;DHT22;29549;40.386;-3.710;2023-11-19T00:48:59;14.20;67.30
43541;DHT22;29549;40.386;-3.710;2023-11-19T00:49:11;14.30;67.30
43541;DHT22;29549;40.386;-3.710;2023-11-19T00:49:22;14.20;67.30
43541;DHT22;29549;40.386;-3.710;2023-11-19T00:49:33;14.20;67.30
43541;DHT22;29549;40.386;-3.710;2023-11-19T00:49:43;14.30;67.30
43541;DHT22;29549;40.386;-3.710;2023-11-19T00:49:54;14.30;67.30
43541;DHT22;29549;40.386;-3.710;2023-11-19T00:50:06;14.20;67.20
43541;DHT22;29549;40.386;-3.710;2023-11-19T00:50:17;14.30;67.20
43541;DHT22;29549;40.386;-3.710;2023-11-19T00:50:28;14.20;67.20
43541;DHT22;29549;40.386;-3.710;2023-11-19T00:50:39;14.30;67.20
43541;DHT22;29549;40.386;-3.710;2023-11-19T00:50:54;14.30;67.20
43541;DHT22;29549;40.386;-3.710;2023-11-19T00:51:05;14.20;67.20
43541;DHT22;29549;40.386;-3.710;2023-11-19T00:51:16;14.20;67.20
43541;DHT22;29549;40.386;-3.710;2023-11-19T00:51:27;14.30;67.20
43541;DHT22;29549;40.386;-3.710;2023-11-19T00:51:37;14.30;67.10
43541;DHT22;29549;40.386;-3.710;2023-11-19T00:51:48;14.20;67.10
43541;DHT22;29549;40.386;-3.710;2023-11-19T00:51:59;14.20;67.00
43541;DHT22;29549;40.386;-3.710;2023-11-19T00:52:10;14.20;67.00
43541;DHT22;29549;40.386;-3.710;2023-11-19T00:52:21;14.20;67.10
43541;DHT22;29549;40.386;-3.710;2023-11-19T00:52:32;14.20;67.10
43541;DHT22;29549;40.386;-3.710;2023-11-19T00:52:43;14.30;67.10
43541;DHT22;29549;40.386;-3.710;2023-11-19T00:52:53;14.20;67.10
43541;DHT22;29549;40.386;-3.710;2023-11-19T00:53:04;14.30;67.10
43541;DHT22;29549;40.386;-3.710;2023-11-19T00:53:15;14.20;67.10
43541;DHT22;29549;40.386;-3.710;2023-11-19T00:53:26;14.20;67.10
43541;DHT22;29549;40.386;-3.710;2023-11-19T00:53:37;14.20;67.10
43541;DHT22;29549;40.386;-3.710;2023-11-19T00:53:47;14.20;67.10
43541;DHT22;29549;40.386;-3.710;2023-11-19T00:53:58;14.20;67.10
43541;DHT22;29549;40.386;-3.710;2023-11-19T00:54:09;14.30;67.10
43541;DHT22;29549;40.386;-3.710;2023-11-19T00:54:20;14.20;67.10
43541;DHT22;29549;40.386;-3.710;2023-11-19T00:54:31;14.20;67.10
43541;DHT22;29549;40.386;-3.710;2023-11-19T00:54:42;14.20;67.10
43541;DHT22;29549;40.386;-3.710;2023-11-19T00:54:53;14.20;67.00
43541;DHT22;29549;40.386;-3.710;2023-11-19T00:55:04;14.20;67.00
43541;DHT22;29549;40.386;-3.710;2023-11-19T00:55:15;14.30;67.10
43541;DHT22;29549;40.386;-3.710;2023-11-19T00:55:26;14.20;67.10
43541;DHT22;29549;40.386;-3.710;2023-11-19T00:55:37;14.20;67.10
43541;DHT22;29549;40.386;-3.710;2023-11-19T00:55:48;14.20;67.00
43541;DHT22;29549;40.386;-3.710;2023-11-19T00:55:59;14.20;67.00
43541;DHT22;29549;40.386;-3.710;2023-11-19T00:56:11;14.20;67.00
43541;DHT22;29549;40.386;-3.710;2023-11-19T00:56:22;14.30;67.00
43541;DHT22;29549;40.386;-3.710;2023-11-19T00:56:33;14.20;67.00
43541;DHT22;29549;40.386;-3.710;2023-11-19T00:56:44;14.20;67.00
43541;DHT22;29549;40.386;-3.710;2023-11-19T00:56:55;14.20;67.00
43541;DHT22;29549;40.386;-3.710;2023-11-19T00:57:06;14.20;67.00
43541;DHT22;29549;40.386;-3.710;2023-11-19T00:57:16;14.20;67.00
43541;DHT22;29549;40.386;-3.710;2023-11-19T00:57:27;14.20;67.00
43541;DHT22;29549;40.386;-3.710;2023-11-19T00:57:38;14.20;67.10
43541;DHT22;29549;40.386;-3.710;2023-11-19T00:57:51;14.20;67.00
43541;DHT22;29549;40.386;-3.710;2023-11-19T00:58:02;14.20;67.00
43541;DHT22;29549;40.386;-3.710;2023-11-19T00:58:13;14.20;67.00
43541;DHT22;29549;40.386;-3.710;2023-11-19T00:58:24;14.20;67.10
43541;DHT22;29549;40.386;-3.710;2023-11-19T00:58:34;14.20;67.10
43541;DHT22;29549;40.386;-3.710;2023-11-19T00:58:45;14.20;67.00
43541;DHT22;29549;40.386;-3.710;2023-11-19T00:58:56;14.20;67.10
43541;DHT22;29549;40.386;-3.710;2023-11-19T00:59:07;14.20;67.10
43541;DHT22;29549;40.386;-3.710;2023-11-19T00:59:18;14.20;67.10
43541;DHT22;29549;40.386;-3.710;2023-11-19T00:59:29;14.20;67.00
43541;DHT22;29549;40.386;-3.710;2023-11-19T00:59:43;14.20;67.00
43541;DHT22;29549;40.386;-3.710;2023-11-19T00:59:54;14.20;67.00
43541;DHT22;29549;40.386;-3.710;2023-11-19T01:00:05;14.20;67.00
43541;DHT22;29549;40.386;-3.710;2023-11-19T01:00:42;14.20;67.00
43541;DHT22;29549;40.386;-3.710;2023-11-19T01:00:56;14.20;67.10
43541;DHT22;29549;40.386;-3.710;2023-11-19T01:01:07;14.20;67.00
43541;DHT22;29549;40.386;-3.710;2023-11-19T01:01:18;14.20;66.90
43541;DHT22;29549;40.386;-3.710;2023-11-19T01:01:29;14.20;66.90
43541;DHT22;29549;40.386;-3.710;2023-11-19T01:01:40;14.20;66.80
43541;DHT22;29549;40.386;-3.710;2023-11-19T01:01:51;14.20;66.90
43541;DHT22;29549;40.386;-3.710;2023-11-19T01:02:01;14.20;66.90
43541;DHT22;29549;40.386;-3.710;2023-11-19T01:02:13;14.20;66.90
43541;DHT22;29549;40.386;-3.710;2023-11-19T01:02:24;14.20;66.90
43541;DHT22;29549;40.386;-3.710;2023-11-19T01:02:35;14.20;66.90
43541;DHT22;29549;40.386;-3.710;2023-11-19T01:02:46;14.20;66.90
43541;DHT22;29549;40.386;-3.710;2023-11-19T01:02:58;14.20;67.00
43541;DHT22;29549;40.386;-3.710;2023-11-19T01:03:10;14.20;66.90
43541;DHT22;29549;40.386;-3.710;2023-11-19T01:03:22;14.20;66.90
43541;DHT22;29549;40.386;-3.710;2023-11-19T01:03:32;14.20;66.80
43541;DHT22;29549;40.386;-3.710;2023-11-19T01:03:43;14.20;66.80
43541;DHT22;29549;40.386;-3.710;2023-11-19T01:03:54;14.20;66.70
43541;DHT22;29549;40.386;-3.710;2023-11-19T01:04:05;14.20;66.70
43541;DHT22;29549;40.386;-3.710;2023-11-19T01:04:15;14.20;66.80
43541;DHT22;29549;40.386;-3.710;2023-11-19T01:04:26;14.20;66.80
43541;DHT22;29549;40.386;-3.710;2023-11-19T01:04:37;14.20;66.90
43541;DHT22;29549;40.386;-3.710;2023-11-19T01:04:48;14.20;66.80
43541;DHT22;29549;40.386;-3.710;2023-11-19T01:04:59;14.20;66.80
43541;DHT22;29549;40.386;-3.710;2023-11-19T01:05:10;14.20;66.80
43541;DHT22;29549;40.386;-3.710;2023-11-19T01:05:24;14.10;66.70
43541;DHT22;29549;40.386;-3.710;2023-11-19T01:05:35;14.20;66.70
43541;DHT22;29549;40.386;-3.710;2023-11-19T01:05:46;14.20;66.70
43541;DHT22;29549;40.386;-3.710;2023-11-19T01:05:57;14.20;66.70
43541;DHT22;29549;40.386;-3.710;2023-11-19T01:06:10;14.10;66.70
43541;DHT22;29549;40.386;-3.710;2023-11-19T01:06:31;14.10;66.70
43541;DHT22;29549;40.386;-3.710;2023-11-19T01:06:42;14.10;66.70
43541;DHT22;29549;40.386;-3.710;2023-11-19T01:06:52;14.10;66.70
43541;DHT22;29549;40.386;-3.710;2023-11-19T01:07:05;14.10;66.80
43541;DHT22;29549;40.386;-3.710;2023-11-19T01:07:22;14.10;66.70
43541;DHT22;29549;40.386;-3.710;2023-11-19T01:07:34;14.10;66.80
43541;DHT22;29549;40.386;-3.710;2023-11-19T01:07:45;14.10;66.80
43541;DHT22;29549;40.386;-3.710;2023-11-19T01:07:56;14.10;66.80
43541;DHT22;29549;40.386;-3.710;2023-11-19T01:08:07;14.10;66.80
43541;DHT22;29549;40.386;-3.710;2023-11-19T01:08:18;14.10;66.80
43541;DHT22;29549;40.386;-3.710;2023-11-19T01:08:29;14.10;66.80
43541;DHT22;29549;40.386;-3.710;2023-11-19T01:08:40;14.10;66.80
43541;DHT22;29549;40.386;-3.710;2023-11-19T01:08:52;14.10;66.70
43541;DHT22;29549;40.386;-3.710;2023-11-19T01:09:03;14.10;66.70
43541;DHT22;29549;40.386;-3.710;2023-11-19T01:09:14;14.00;66.80
43541;DHT22;29549;40.386;-3.710;2023-11-19T01:09:25;14.10;66.80
43541;DHT22;29549;40.386;-3.710;2023-11-19T01:09:37;14.10;66.80
43541;DHT22;29549;40.386;-3.710;2023-11-19T01:09:47;14.10;66.80
43541;DHT22;29549;40.386;-3.710;2023-11-19T01:09:58;14.00;66.80